This is the latest recevied weather packets stored in our database for station/object AE7MK-13. If no packets are shown the sender has not sent any weather packets the latest 10 day(s).
| Time | Temp. | Humidity | Pressure | Rain* | Wind** | Luminosity | Snow |
|---|---|---|---|---|---|---|---|
| 1777642203 | 7.22° C | 52% | 1019.1 hPa | 0 mm | - | - | - |
| 1777641004 | 6.11° C | 54% | 1018.9 hPa | 0 mm | - | - | - |
| 1777639803 | 5.56° C | 56% | 1018.9 hPa | 0 mm | - | - | - |
| 1777628403 | 7.22° C | 54% | 1019.4 hPa | 0 mm | - | - | - |
| 1777627203 | 7.22° C | 53% | 1019.7 hPa | 0 mm | - | - | - |
| 1777626133 | 7.22° C | 52% | 1019.7 hPa | 0 mm | - | - | - |
| 1777622403 | 7.78° C | 49% | 1019.9 hPa | 0 mm | - | - | - |
| 1777618803 | 7.78° C | 49% | 1020 hPa | 0 mm | - | - | - |
| 1777607403 | 10.56° C | 48% | 1020.2 hPa | 0 mm | - | - | - |
| 1777606203 | 11.67° C | 44% | 1020 hPa | 0 mm | - | - | - |
| 1777603332 | 14.44° C | 37% | 1019.9 hPa | 0 mm | - | - | - |
| 1777593003 | 16.67° C | 31% | 1020.8 hPa | 0 mm | - | - | - |
| 1777588203 | 16.11° C | 32% | 1021.7 hPa | 0 mm | - | - | - |
| 1777587003 | 16.67° C | 32% | 1021.9 hPa | 0 mm | - | - | - |
| 1777580534 | 15° C | 33% | 1022.6 hPa | 0 mm | - | - | - |
| 1777579334 | 16.11° C | 35% | 1022.9 hPa | 0 mm | - | - | - |
| 1777572603 | 14.44° C | 42% | 1023.5 hPa | 0 mm | - | - | - |
| 1777572003 | 14.44° C | 44% | 1023.6 hPa | 0 mm | - | - | - |
| 1777568403 | 13.89° C | 44% | 1023.8 hPa | 0 mm | - | - | - |
| 1777558803 | 10° C | 62% | 1023.6 hPa | 0 mm | - | - | - |
| 1777557003 | 8.33° C | 63% | 1023.4 hPa | 0 mm | - | - | - |
| 1777552803 | 6.67° C | 66% | 1023.3 hPa | 0 mm | - | - | - |
| 1777549933 | 5° C | 73% | 1023.3 hPa | 0 mm | - | - | - |
| 1777548603 | 5.56° C | 71% | 1023.4 hPa | 0 mm | - | - | - |
| 1777546803 | 5.56° C | 72% | 1023.4 hPa | 0 mm | - | - | - |
* Rain latest hour (hover to see other rain measurements)
** Current wind speed in m/s (hover to see current wind gust speed)